Latest Weather Observations for Wattamolla

IDN60901

Issued at 2:35 pm EST Wednesday 16 April 2014 (issued every 10 minutes, with the page automatically refreshed every 10 minutes)

About weather observations | Map of Sydney area stations | Latest observations for Sydney area | Other Formats
Station Details ID: 066208 Name: WATTAMOLLA AWS Lat: -34.14 Lon: 151.12 Height: 44.0 m
Data from the previous 72 hours. | See also: Recent months for locations in New South Wales
Date/Time
EST
Tmp

°C
App
Tmp
°C
Dew
Point
°C
Rel
Hum
%
Delta-T

°C
Wind Press
QNH
hPa
Press
MSL
hPa
Rain
since
9 am
mm
Dir
 
Spd
km/h
Gust
km/h
Spd
kts
Gust
kts
16/02:30pm - - - - - S 43 54 23 29 - - -
16/02:00pm - - - - - S 48 56 26 30 - - -
16/01:30pm - - - - - S 44 52 24 28 - - -
16/01:00pm - - - - - S 41 52 22 28 - - -
16/12:30pm - - - - - S 39 48 21 26 - - -
16/12:00pm - - - - - S 35 46 19 25 - - -
16/11:30am - - - - - S 44 52 24 28 - - -
16/11:00am - - - - - S 46 57 25 31 - - -
16/10:30am - - - - - S 46 59 25 32 - - -
16/10:00am - - - - - S 44 56 24 30 - - -
16/09:30am - - - - - S 41 52 22 28 - - -
16/09:00am - - - - - S 37 54 20 29 - - -
16/08:30am - - - - - S 32 50 17 27 - - -
16/08:23am - - - - - S 37 56 20 30 - - -
16/08:00am - - - - - S 41 54 22 29 - - -
16/07:30am - - - - - S 41 57 22 31 - - -
16/07:00am - - - - - S 37 59 20 32 - - -
16/06:45am - - - - - S 33 52 18 28 - - -
16/06:30am - - - - - S 35 50 19 27 - - -
16/06:00am - - - - - S 46 59 25 32 - - -
16/05:34am - - - - - S 44 63 24 34 - - -
16/05:30am - - - - - S 46 59 25 32 - - -
16/05:00am - - - - - S 50 65 27 35 - - -
16/04:33am - - - - - S 41 61 22 33 - - -
16/04:30am - - - - - S 41 56 22 30 - - -
16/04:19am - - - - - S 46 65 25 35 - - -
16/04:00am - - - - - S 44 59 24 32 - - -
16/03:30am - - - - - S 37 56 20 30 - - -
16/03:11am - - - - - S 50 69 27 37 - - -
16/03:00am - - - - - S 48 63 26 34 - - -
16/02:54am - - - - - S 50 69 27 37 - - -
16/02:30am - - - - - S 57 70 31 38 - - -
16/02:00am - - - - - S 61 72 33 39 - - -
16/01:30am - - - - - S 57 70 31 38 - - -
16/01:00am - - - - - S 54 63 29 34 - - -
16/12:30am - - - - - S 54 61 29 33 - - -
16/12:00am - - - - - S 48 61 26 33 - - -
 
Date/Time
EST
Tmp

°C
App
Tmp
°C
Dew
Point
°C
Rel
Hum
%
Delta-T

°C
Wind Press
QNH
hPa
Press
MSL
hPa
Rain
since
9 am
mm
Dir
 
Spd
km/h
Gust
km/h
Spd
kts
Gust
kts
15/11:33pm - - - - - S 33 56 18 30 - - -
15/11:30pm - - - - - S 32 48 17 26 - - -
15/11:19pm - - - - - S 52 70 28 38 - - -
15/11:08pm - - - - - S 56 69 30 37 - - -
15/11:00pm - - - - - S 35 56 19 30 - - -
15/10:30pm - - - - - S 28 48 15 26 - - -
15/10:00pm - - - - - S 35 57 19 31 - - -
15/09:56pm - - - - - S 32 56 17 30 - - -
15/09:51pm - - - - - SSW 24 37 13 20 - - -
15/09:30pm - - - - - S 39 61 21 33 - - -
15/09:26pm - - - - - S 50 69 27 37 - - -
15/09:00pm - - - - - S 52 65 28 35 - - -
15/08:30pm - - - - - S 56 74 30 40 - - -
15/08:28pm - - - - - S 56 74 30 40 - - -
15/08:00pm - - - - - S 57 74 31 40 - - -
15/07:30pm - - - - - S 59 70 32 38 - - -
15/07:00pm - - - - - S 57 72 31 39 - - -
15/06:37pm - - - - - S 54 74 29 40 - - -
15/06:30pm - - - - - S 56 69 30 37 - - -
15/06:01pm - - - - - S 50 69 27 37 - - -
15/06:00pm - - - - - S 52 69 28 37 - - -
15/05:30pm - - - - - S 54 69 29 37 - - -
15/05:01pm - - - - - S 59 70 32 38 - - -
15/05:00pm - - - - - S 32 63 17 34 - - -
15/04:30pm - - - - - S 50 59 27 32 - - -
15/04:00pm - - - - - S 37 48 20 26 - - -
15/03:30pm - - - - - S 41 59 22 32 - - -
15/03:14pm - - - - - S 52 70 28 38 - - -
15/03:00pm - - - - - S 59 74 32 40 - - -
15/02:30pm - - - - - S 57 70 31 38 - - -
15/02:00pm - - - - - S 54 63 29 34 - - -
15/01:30pm - - - - - S 52 61 28 33 - - -
15/01:00pm - - - - - S 48 59 26 32 - - -
15/12:30pm - - - - - S 37 44 20 24 - - -
15/12:00pm - - - - - S 35 46 19 25 - - -
15/11:30am - - - - - S 35 48 19 26 - - -
15/11:00am - - - - - S 37 50 20 27 - - -
15/10:30am - - - - - S 33 44 18 24 - - -
15/10:00am - - - - - S 37 48 20 26 - - -
15/09:30am - - - - - S 39 50 21 27 - - -
15/09:00am - - - - - S 35 48 19 26 - - -
15/08:30am - - - - - S 35 43 19 23 - - -
15/08:00am - - - - - S 32 46 17 25 - - -
15/07:30am - - - - - S 33 48 18 26 - - -
15/07:00am - - - - - S 37 48 20 26 - - -
15/06:30am - - - - - S 39 54 21 29 - - -
15/06:00am - - - - - S 44 52 24 28 - - -
15/05:30am - - - - - S 44 54 24 29 - - -
15/05:00am - - - - - S 46 59 25 32 - - -
15/04:30am - - - - - S 46 57 25 31 - - -
15/04:00am - - - - - S 50 57 27 31 - - -
15/03:30am - - - - - S 44 57 24 31 - - -
15/03:25am - - - - - S 39 57 21 31 - - -
15/03:00am - - - - - S 43 54 23 29 - - -
15/02:30am - - - - - S 33 44 18 24 - - -
15/02:00am - - - - - S 32 46 17 25 - - -
15/01:30am - - - - - S 32 41 17 22 - - -
15/01:00am - - - - - S 30 41 16 22 - - -
15/12:56am - - - - - S 35 54 19 29 - - -
15/12:37am - - - - - S 39 48 21 26 - - -
15/12:30am - - - - - S 17 26 9 14 - - -
15/12:04am - - - - - S 48 67 26 36 - - -
15/12:00am - - - - - S 57 67 31 36 - - -
 
Date/Time
EST
Tmp

°C
App
Tmp
°C
Dew
Point
°C
Rel
Hum
%
Delta-T

°C
Wind Press
QNH
hPa
Press
MSL
hPa
Rain
since
9 am
mm
Dir
 
Spd
km/h
Gust
km/h
Spd
kts
Gust
kts
14/11:59pm - - - - - SSE 57 67 31 36 - - -
14/11:57pm - - - - - S 37 63 20 34 - - -
14/11:56pm - - - - - S 37 52 20 28 - - -
14/11:43pm - - - - - S 30 33 16 18 - - -
14/11:30pm - - - - - S 7 11 4 6 - - -
14/11:18pm - - - - - S 39 59 21 32 - - -
14/11:00pm - - - - - S 44 56 24 30 - - -
14/10:39pm - - - - - S 33 52 18 28 - - -
14/10:36pm - - - - - S 28 43 15 23 - - -
14/10:30pm - - - - - SW 15 24 8 13 - - -
14/10:18pm - - - - - S 28 46 15 25 - - -
14/10:00pm - - - - - S 22 46 12 25 - - -
14/09:30pm - - - - - S 20 37 11 20 - - -
14/09:00pm - - - - - S 22 33 12 18 - - -
14/08:30pm - - - - - S 20 35 11 19 - - -
14/08:00pm - - - - - W 9 13 5 7 - - -
14/07:30pm - - - - - SW 11 20 6 11 - - -
14/07:00pm - - - - - SW 17 28 9 15 - - -
14/06:30pm - - - - - SSW 22 33 12 18 - - -
14/06:00pm - - - - - W 17 24 9 13 - - -
14/05:30pm - - - - - SW 20 28 11 15 - - -
14/05:00pm - - - - - S 20 32 11 17 - - -
14/04:39pm - - - - - S 46 65 25 35 - - -
14/04:30pm - - - - - S 50 63 27 34 - - -
14/04:00pm - - - - - S 46 65 25 35 - - -
14/03:36pm - - - - - S 28 52 15 28 - - -
14/03:30pm - - - - - SSW 24 35 13 19 - - -
14/03:06pm - - - - - S 37 56 20 30 - - -
14/03:00pm - - - - - S 37 52 20 28 - - -
14/02:31pm - - - - - S 35 54 19 29 - - -
14/02:30pm - - - - - S 37 54 20 29 - - -
14/02:00pm - - - - - S 46 57 25 31 - - -
14/01:30pm - - - - - S 35 54 19 29 - - -
14/01:12pm - - - - - S 35 56 19 30 - - -
14/01:00pm - - - - - S 39 52 21 28 - - -
14/12:30pm - - - - - S 54 61 29 33 - - -
14/12:00pm - - - - - S 50 57 27 31 - - -
14/11:45am - - - - - S 35 54 19 29 - - -
14/11:30am - - - - - S 39 46 21 25 - - -
14/11:01am - - - - - S 33 54 18 29 - - -
14/11:00am - - - - - S 32 48 17 26 - - -
14/10:52am - - - - - S 28 48 15 26 - - -
14/10:30am - - - - - S 26 39 14 21 - - -
14/10:15am - - - - - S 35 54 19 29 - - -
14/10:00am - - - - - S 59 70 32 38 - - -
14/09:45am - - - - - S 57 63 31 34 - - -
14/09:30am - - - - - S 35 50 19 27 - - -
14/09:00am - - - - - S 52 63 28 34 - - -
14/08:30am - - - - - S 44 56 24 30 - - -
14/08:00am - - - - - S 50 59 27 32 - - -
14/07:30am - - - - - S 54 63 29 34 - - -
14/07:00am - - - - - S 59 72 32 39 - - -
14/06:30am - - - - - S 46 59 25 32 - - -
14/06:00am - - - - - S 43 54 23 29 - - -
14/05:30am - - - - - S 52 59 28 32 - - -
14/05:00am - - - - - S 50 61 27 33 - - -
14/04:30am - - - - - S 52 59 28 32 - - -
14/04:00am - - - - - S 50 61 27 33 - - -
14/03:30am - - - - - S 50 59 27 32 - - -
14/03:06am - - - - - S 32 54 17 29 - - -
14/03:00am - - - - - S 32 44 17 24 - - -
14/02:33am - - - - - S 35 54 19 29 - - -
14/02:30am - - - - - S 39 54 21 29 - - -
14/02:00am - - - - - S 35 56 19 30 - - -
14/01:45am - - - - - S 32 50 17 27 - - -
14/01:30am - - - - - S 35 50 19 27 - - -
14/01:01am - - - - - S 35 54 19 29 - - -
14/01:00am - - - - - S 35 52 19 28 - - -
14/12:30am - - - - - S 44 56 24 30 - - -
14/12:00am - - - - - S 43 56 23 30 - - -
 
Date/Time
EST
Tmp

°C
App
Tmp
°C
Dew
Point
°C
Rel
Hum
%
Delta-T

°C
Wind Press
QNH
hPa
Press
MSL
hPa
Rain
since
9 am
mm
Dir
 
Spd
km/h
Gust
km/h
Spd
kts
Gust
kts
13/11:47pm - - - - - S 43 61 23 33 - - -
13/11:30pm - - - - - S 41 56 22 30 - - -
13/11:01pm - - - - - S 32 54 17 29 - - -
13/11:00pm - - - - - S 32 48 17 26 - - -
13/10:30pm - - - - - S 32 50 17 27 - - -
13/10:09pm - - - - - S 41 59 22 32 - - -
13/10:00pm - - - - - S 44 54 24 29 - - -
13/09:30pm - - - - - S 43 56 23 30 - - -
13/09:00pm - - - - - S 41 52 22 28 - - -
13/08:30pm - - - - - S 41 56 22 30 - - -
13/08:00pm - - - - - S 39 52 21 28 - - -
13/07:30pm - - - - - S 44 65 24 35 - - -
13/07:00pm - - - - - S 52 65 28 35 - - -
13/06:30pm - - - - - S 54 67 29 36 - - -
13/06:00pm - - - - - S 56 69 30 37 - - -
13/05:30pm - - - - - S 56 67 30 36 - - -
13/05:00pm - - - - - S 59 69 32 37 - - -
13/04:30pm - - - - - S 61 72 33 39 - - -
13/04:00pm - - - - - S 57 72 31 39 - - -
13/03:30pm - - - - - S 54 67 29 36 - - -
13/03:03pm - - - - - S 41 59 22 32 - - -
13/03:00pm - - - - - SSE 43 59 23 32 - - -

Latest Capital City Observations: Canberra | Sydney | Melbourne | Brisbane | Adelaide | Perth | Hobart | Darwin

Other Formats:

Comma delimited format used in spreadsheet applications
http://www.bom.gov.au/fwo/IDN60901/IDN60901.95752.axf

JavaScript Object Notation format (JSON) in row-major order
http://www.bom.gov.au/fwo/IDN60901/IDN60901.95752.json